Time;durP1;ratioP1;P1;durP2;ratioP2;P2;SDS_P1;SDS_P2;PMS_P1;PMS_P2;Temp;Humidity;BMP_temperature;BMP_pressure;BME280_temperature;BME280_humidity;BME280_pressure;Samples;Min_cycle;Max_cycle;Signal;HPM_P1;HPM_P2
2023/02/12 00:04:51;;;;;;;67.32;40.35;;;;;;;5.53;100.00;101679.81;10525309;28;20043;-73
2023/02/12 00:09:52;;;;;;;71.93;41.45;;;;;;;5.50;100.00;101690.19;10545821;28;20481;-73
2023/02/12 00:14:54;;;;;;;71.60;41.03;;;;;;;5.41;100.00;101687.44;10544676;28;20040;-73
2023/02/12 00:19:56;;;;;;;72.28;41.83;;;;;;;5.48;100.00;101697.09;10525082;28;20047;-73
2023/02/12 00:24:57;;;;;;;77.70;44.47;;;;;;;5.39;100.00;101702.16;10546312;28;20040;-73
2023/02/12 00:29:59;;;;;;;92.07;46.13;;;;;;;5.21;100.00;101714.91;10543901;28;20048;-72
2023/02/12 00:35:01;;;;;;;96.07;48.53;;;;;;;5.30;100.00;101715.06;10524285;28;20040;-72
2023/02/12 00:40:03;;;;;;;105.72;49.92;;;;;;;5.26;100.00;101702.81;10543410;28;20501;-72
2023/02/12 00:45:06;;;;;;;100.25;49.38;;;;;;;5.25;100.00;101708.88;10509784;28;20044;-72
2023/02/12 00:50:08;;;;;;;98.93;49.83;;;;;;;5.40;100.00;101708.25;10543711;28;20051;-72
2023/02/12 00:55:09;;;;;;;89.25;46.80;;;;;;;5.50;100.00;101703.22;10557441;22;20044;-74
2023/02/12 01:00:12;;;;;;;80.93;44.45;;;;;;;5.52;100.00;101706.72;10543341;28;20065;-73
2023/02/12 01:05:14;;;;;;;81.65;45.28;;;;;;;5.44;100.00;101723.97;10544093;28;20097;-74
2023/02/12 01:10:16;;;;;;;86.95;46.03;;;;;;;5.14;100.00;101726.09;10517874;28;20089;-74
2023/02/12 01:15:18;;;;;;;78.22;43.67;;;;;;;5.49;100.00;101729.25;10518140;28;20067;-74
2023/02/12 01:20:23;;;;;;;75.25;42.08;;;;;;;5.38;100.00;101721.28;10543551;28;20032;-74
2023/02/12 01:25:24;;;;;;;76.72;42.15;;;;;;;5.42;100.00;101719.59;10519764;28;20032;-74
2023/02/12 01:30:28;;;;;;;84.70;44.75;;;;;;;5.41;100.00;101720.47;10519207;28;20052;-74
2023/02/12 01:35:29;;;;;;;82.43;43.28;;;;;;;5.35;100.00;101720.34;10543102;28;20042;-73
2023/02/12 01:40:31;;;;;;;85.57;43.10;;;;;;;5.40;100.00;101726.50;10503588;28;20050;-73
2023/02/12 01:45:42;;;;;;;81.82;44.20;;;;;;;5.41;100.00;101718.72;10519081;28;20040;-73
2023/02/12 01:50:46;;;;;;;72.85;41.15;;;;;;;5.52;100.00;101724.09;10543030;28;20468;-74
2023/02/12 01:55:52;;;;;;;83.90;45.55;;;;;;;5.13;100.00;101729.53;10522230;28;20040;-74
2023/02/12 02:00:54;;;;;;;83.65;43.58;;;;;;;5.39;100.00;101729.97;10523965;28;20040;-74
2023/02/12 02:06:06;;;;;;;83.60;43.72;;;;;;;5.46;100.00;101724.00;10524058;28;20039;-73
2023/02/12 02:16:35;;;;;;;90.47;47.20;;;;;;;5.16;100.00;101721.75;10544133;28;20028;-74
2023/02/12 02:21:59;;;;;;;90.90;45.05;;;;;;;5.42;100.00;101717.88;10543418;28;20119;-73
2023/02/12 02:27:19;;;;;;;85.07;44.92;;;;;;;5.52;100.00;101711.94;10544080;28;20119;-74
2023/02/12 02:32:28;;;;;;;85.22;43.47;;;;;;;5.41;100.00;101721.34;10543759;28;20454;-74
2023/02/12 02:38:07;;;;;;;89.65;47.03;;;;;;;5.30;100.00;101725.47;10542154;28;20040;-74
2023/02/12 02:43:26;;;;;;;81.97;43.10;;;;;;;5.26;100.00;101731.50;10542216;28;20048;-73
2023/02/12 02:48:37;;;;;;;87.78;45.10;;;;;;;5.06;100.00;101728.56;10542031;28;20040;-74
2023/02/12 02:53:46;;;;;;;84.90;43.22;;;;;;;5.27;100.00;101730.66;10541271;28;20044;-73
2023/02/12 02:58:56;;;;;;;83.65;43.08;;;;;;;5.30;100.00;101730.69;10547569;28;20047;-73
2023/02/12 03:04:07;;;;;;;80.00;41.63;;;;;;;5.34;100.00;101740.31;10530521;28;20047;-74
2023/02/12 03:09:25;;;;;;;74.57;40.22;;;;;;;5.24;100.00;101747.13;10550357;28;20059;-74
2023/02/12 03:14:33;;;;;;;73.25;39.92;;;;;;;5.12;100.00;101748.63;10549434;28;20075;-74
2023/02/12 03:19:42;;;;;;;83.78;41.63;;;;;;;5.22;100.00;101754.06;10550017;28;20090;-74
2023/02/12 03:25:04;;;;;;;83.70;42.35;;;;;;;5.34;100.00;101761.19;10512370;28;20533;-75
2023/02/12 03:30:07;;;;;;;71.63;40.45;;;;;;;5.26;100.00;101771.47;10549391;28;20086;-74
2023/02/12 03:35:15;;;;;;;86.93;44.83;;;;;;;5.38;100.00;101775.16;10548123;28;20382;-74
2023/02/12 03:40:27;;;;;;;85.35;43.53;;;;;;;5.35;100.00;101786.41;10523268;28;20039;-74
2023/02/12 03:45:50;;;;;;;90.68;45.05;;;;;;;5.50;100.00;101799.72;10548819;28;20504;-73
2023/02/12 03:51:29;;;;;;;87.70;44.25;;;;;;;5.36;100.00;101805.53;10529588;28;20048;-74
2023/02/12 03:56:43;;;;;;;96.40;47.42;;;;;;;5.14;100.00;101815.59;10548736;28;20047;-74
2023/02/12 04:01:45;;;;;;;107.15;51.38;;;;;;;5.25;100.00;101819.25;10527057;28;20058;-74
2023/02/12 04:06:49;;;;;;;99.75;50.83;;;;;;;5.40;100.00;101825.59;10549315;28;20036;-74
2023/02/12 04:12:14;;;;;;;102.13;50.75;;;;;;;5.29;100.00;101835.84;10526254;28;20093;-74
2023/02/12 04:17:37;;;;;;;97.78;48.60;;;;;;;5.26;100.00;101834.03;10521982;28;20032;-73
2023/02/12 04:23:00;;;;;;;90.93;48.17;;;;;;;5.18;100.00;101846.09;10546751;28;20098;-73
2023/02/12 04:28:08;;;;;;;94.05;45.75;;;;;;;5.03;100.00;101846.66;10527231;28;20059;-73
2023/02/12 04:33:17;;;;;;;92.78;46.70;;;;;;;5.00;100.00;101838.78;10545430;28;20097;-73
2023/02/12 04:38:28;;;;;;;90.15;44.47;;;;;;;5.13;100.00;101839.88;10548232;28;20043;-73
2023/02/12 04:43:33;;;;;;;89.70;45.45;;;;;;;5.23;100.00;101840.97;10545198;28;20085;-73
2023/02/12 04:48:50;;;;;;;85.15;44.60;;;;;;;5.06;100.00;101849.31;10545860;28;20048;-74
2023/02/12 04:53:52;;;;;;;87.85;43.65;;;;;;;4.95;100.00;101848.22;10509548;28;20052;-74
2023/02/12 04:58:56;;;;;;;101.50;46.88;;;;;;;4.89;100.00;101835.06;10545820;28;20090;-73
2023/02/12 05:03:58;;;;;;;100.93;47.47;;;;;;;5.07;100.00;101845.84;10545866;28;20044;-73
2023/02/12 05:09:00;;;;;;;104.38;49.80;;;;;;;5.02;100.00;101849.22;10546880;28;20051;-74
2023/02/12 05:14:01;;;;;;;98.88;45.85;;;;;;;5.24;100.00;101856.63;10528370;28;20102;-74
2023/02/12 05:19:03;;;;;;;102.78;46.97;;;;;;;5.38;100.00;101856.00;10528186;28;20128;-74
2023/02/12 05:24:05;;;;;;;98.53;47.65;;;;;;;5.31;100.00;101855.91;10546316;28;20071;-73
2023/02/12 05:29:07;;;;;;;96.65;47.00;;;;;;;5.28;100.00;101865.38;10544638;28;20036;-72
2023/02/12 05:34:10;;;;;;;84.38;43.17;;;;;;;5.39;100.00;101871.66;10544112;28;20040;-72
2023/02/12 05:39:12;;;;;;;88.50;45.03;;;;;;;5.24;100.00;101874.00;10502113;28;20047;-73
2023/02/12 05:44:14;;;;;;;83.38;41.75;;;;;;;5.27;100.00;101868.84;10544717;28;20036;-74
2023/02/12 05:49:16;;;;;;;85.30;42.33;;;;;;;5.30;100.00;101869.75;10519717;28;20040;-73
2023/02/12 05:54:17;;;;;;;85.05;42.95;;;;;;;5.39;100.00;101874.28;10543489;28;20153;-74
2023/02/12 05:59:22;;;;;;;80.32;42.25;;;;;;;5.37;100.00;101870.78;10544468;28;20044;-73
2023/02/12 06:04:26;;;;;;;79.60;39.50;;;;;;;5.12;100.00;101873.75;10518923;28;20036;-73
2023/02/12 06:09:28;;;;;;;82.28;41.60;;;;;;;5.24;100.00;101880.09;10544009;28;20056;-74
2023/02/12 06:14:29;;;;;;;82.95;41.13;;;;;;;5.14;100.00;101888.59;10543139;28;20062;-73
2023/02/12 06:19:32;;;;;;;83.13;40.22;;;;;;;5.15;100.00;101892.06;10542858;28;20052;-74
2023/02/12 06:24:35;;;;;;;81.22;40.88;;;;;;;5.15;100.00;101903.38;10543037;28;20036;-73
2023/02/12 06:29:37;;;;;;;88.97;43.70;;;;;;;5.03;100.00;101901.38;10504704;28;20105;-72
2023/02/12 06:34:39;;;;;;;89.18;41.42;;;;;;;5.00;100.00;101918.69;10528563;28;20486;-73
2023/02/12 06:39:41;;;;;;;82.85;40.85;;;;;;;4.99;100.00;101928.22;10550309;28;20059;-73
2023/02/12 06:44:43;;;;;;;84.15;41.45;;;;;;;5.09;100.00;101926.72;10550018;28;20127;-74
2023/02/12 06:49:44;;;;;;;75.95;40.20;;;;;;;5.29;100.00;101935.81;10549450;28;20040;-73
2023/02/12 06:54:46;;;;;;;73.13;39.15;;;;;;;5.32;100.00;101943.72;10550591;28;20036;-77
2023/02/12 06:59:48;;;;;;;80.97;39.85;;;;;;;5.19;100.00;101946.03;10546799;28;20048;-76
2023/02/12 07:04:50;;;;;;;81.40;39.92;;;;;;;5.11;100.00;101953.69;10546687;28;20039;-77
2023/02/12 07:09:52;;;;;;;81.70;40.67;;;;;;;5.20;100.00;101951.28;10550884;28;20062;-77
2023/02/12 07:14:53;;;;;;;80.78;39.65;;;;;;;5.19;100.00;101961.69;10532561;28;20051;-77
2023/02/12 07:19:56;;;;;;;85.45;42.28;;;;;;;5.01;100.00;101960.44;10551115;28;20477;-77
2023/02/12 07:24:57;;;;;;;82.22;41.20;;;;;;;5.01;100.00;101969.97;10549978;28;20047;-76
2023/02/12 07:29:59;;;;;;;76.00;38.90;;;;;;;5.30;100.00;101973.19;10550008;28;20036;-77
2023/02/12 07:35:01;;;;;;;73.95;38.03;;;;;;;5.42;100.00;101969.97;10551573;28;20036;-77
2023/02/12 07:40:03;;;;;;;78.15;38.97;;;;;;;5.35;100.00;101976.78;10530596;28;20143;-76
2023/02/12 07:45:06;;;;;;;74.72;38.05;;;;;;;5.25;100.00;101974.81;10547761;28;20060;-77
2023/02/12 07:50:08;;;;;;;62.53;35.17;;;;;;;5.41;100.00;101973.44;10549316;28;20036;-77
2023/02/12 07:55:10;;;;;;;64.47;35.03;;;;;;;5.38;100.00;101982.06;10548380;28;20074;-77
2023/02/12 08:00:12;;;;;;;57.83;33.50;;;;;;;5.66;100.00;101980.88;10548291;28;20495;-75
2023/02/12 08:05:14;;;;;;;60.72;35.38;;;;;;;5.66;100.00;101990.44;10548620;28;20386;-76
2023/02/12 08:10:18;;;;;;;51.70;33.20;;;;;;;5.69;100.00;101999.19;10547103;28;20507;-76
2023/02/12 08:15:20;;;;;;;57.38;33.70;;;;;;;5.78;100.00;101999.38;10521298;28;20134;-76
2023/02/12 08:20:22;;;;;;;55.03;32.25;;;;;;;5.68;100.00;102001.78;10546726;28;20044;-77
2023/02/12 08:25:24;;;;;;;55.45;33.85;;;;;;;5.70;100.00;102014.00;10546383;28;20097;-77
2023/02/12 08:30:26;;;;;;;52.30;32.72;;;;;;;5.70;100.00;102003.56;10545892;28;20409;-78
2023/02/12 08:35:27;;;;;;;45.63;31.02;;;;;;;5.89;100.00;102006.53;10524003;28;20060;-77
2023/02/12 08:40:29;;;;;;;38.97;29.77;;;;;;;5.71;100.00;102007.97;10545564;28;20126;-76
2023/02/12 08:45:32;;;;;;;40.33;30.20;;;;;;;5.44;100.00;102018.69;10545160;28;20068;-76
2023/02/12 08:50:33;;;;;;;54.05;34.03;;;;;;;5.35;100.00;102028.03;10545393;28;20059;-77
2023/02/12 08:55:35;;;;;;;50.97;32.55;;;;;;;5.35;100.00;102026.31;10523070;28;20115;-75
2023/02/12 09:00:37;;;;;;;61.05;34.50;;;;;;;5.35;100.00;102036.75;10544377;28;20405;-75
2023/02/12 09:05:41;;;;;;;53.00;31.85;;;;;;;5.41;100.00;102039.50;10544876;28;20485;-75
2023/02/12 09:10:44;;;;;;;27.33;24.48;;;;;;;6.09;100.00;102048.72;10545039;28;20414;-76
2023/02/12 09:15:46;;;;;;;27.40;24.60;;;;;;;6.00;100.00;102047.69;10523709;28;20072;-76
2023/02/12 09:20:47;;;;;;;24.23;21.92;;;;;;;5.91;100.00;102059.66;10523348;28;20131;-75
2023/02/12 09:25:49;;;;;;;25.52;23.02;;;;;;;5.96;100.00;102058.91;10505956;28;20050;-76
2023/02/12 09:30:51;;;;;;;25.20;21.98;;;;;;;6.16;100.00;102064.53;10542623;28;20094;-75
2023/02/12 09:35:53;;;;;;;27.27;22.08;;;;;;;6.30;100.00;102062.19;10540250;28;20498;-75
2023/02/12 09:41:02;;;;;;;26.98;19.10;;;;;;;6.08;100.00;102073.94;10524002;28;20082;-76
2023/02/12 09:46:12;;;;;;;21.85;18.90;;;;;;;6.01;100.00;102078.16;10543251;28;20127;-75
2023/02/12 09:51:14;;;;;;;24.92;18.60;;;;;;;6.24;100.00;102072.50;10543339;28;20042;-76
2023/02/12 09:56:19;;;;;;;22.73;16.83;;;;;;;6.62;100.00;102082.75;10542744;28;20050;-75
2023/02/12 10:01:21;;;;;;;21.75;15.55;;;;;;;6.88;100.00;102089.31;10517721;28;20497;-77
2023/02/12 10:06:49;;;;;;;14.05;12.75;;;;;;;6.83;100.00;102083.13;10542368;28;20086;-77
2023/02/12 10:12:17;;;;;;;18.20;11.25;;;;;;;7.00;100.00;102086.88;10525718;28;20048;-77
2023/02/12 10:17:42;;;;;;;27.10;10.20;;;;;;;7.23;100.00;102089.84;10544812;28;20099;-77
2023/02/12 10:22:50;;;;;;;17.73;12.60;;;;;;;6.98;100.00;102080.75;10524056;28;20401;-77
2023/02/12 10:28:01;;;;;;;12.13;10.93;;;;;;;7.24;100.00;102088.09;10510942;28;20443;-78
2023/02/12 10:33:11;;;;;;;24.40;12.05;;;;;;;7.14;100.00;102081.00;10545920;28;20052;-77
2023/02/12 10:38:18;;;;;;;42.35;24.55;;;;;;;7.34;100.00;102075.16;10545779;28;20143;-77
2023/02/12 10:43:20;;;;;;;15.88;9.25;;;;;;;7.46;100.00;102074.47;10522274;28;20044;-78
2023/02/12 10:48:29;;;;;;;18.35;8.73;;;;;;;7.24;100.00;102085.50;10522390;28;20436;-78
2023/02/12 10:53:40;;;;;;;408.33;183.88;;;;;;;7.25;100.00;102080.28;10544013;28;20074;-76
2023/02/12 10:59:02;;;;;;;27.88;13.63;;;;;;;7.53;100.00;102081.56;10543386;28;20040;-77
2023/02/12 11:04:27;;;;;;;17.10;7.65;;;;;;;7.38;100.00;102080.47;10544827;28;20098;-76
2023/02/12 11:09:44;;;;;;;25.23;16.15;;;;;;;7.61;100.00;102079.03;10519281;28;20078;-77
2023/02/12 11:14:56;;;;;;;48.10;26.25;;;;;;;7.57;100.00;102067.66;10542545;28;20075;-78
2023/02/12 11:20:08;;;;;;;28.10;16.08;;;;;;;7.53;100.00;102062.38;10510426;28;20138;-76
2023/02/12 11:25:15;;;;;;;13.82;9.15;;;;;;;7.69;99.01;102060.81;10542290;28;20072;-76
2023/02/12 11:30:20;;;;;;;13.95;8.25;;;;;;;7.70;100.00;102059.94;10549519;28;20115;-77
2023/02/12 11:35:25;;;;;;;12.88;10.10;;;;;;;7.93;95.65;102058.50;10550584;28;20032;-76
2023/02/12 11:40:32;;;;;;;16.02;8.80;;;;;;;7.76;99.00;102054.78;10525734;28;20431;-76
2023/02/12 11:45:51;;;;;;;12.77;8.18;;;;;;;7.58;100.00;102064.19;10548842;28;20428;-76
2023/02/12 11:50:56;;;;;;;20.50;7.72;;;;;;;7.55;100.00;102058.00;10491791;28;20044;-78
2023/02/12 11:56:04;;;;;;;14.23;11.30;;;;;;;7.71;98.25;102064.34;10508587;28;20029;-76
2023/02/12 12:01:28;;;;;;;16.70;7.05;;;;;;;7.19;100.00;102067.13;10474449;28;20097;-76
2023/02/12 12:06:36;;;;;;;23.00;10.95;;;;;;;7.47;98.35;102054.41;10486129;28;20055;-77
2023/02/12 12:12:03;;;;;;;17.58;7.63;;;;;;;7.40;99.44;102057.81;10507963;28;20049;-77
2023/02/12 12:22:48;;;;;;;21.67;8.02;;;;;;;7.45;100.00;102053.53;10493145;28;20070;-79
2023/02/12 12:28:04;;;;;;;10.85;6.65;;;;;;;7.57;97.90;102051.06;10511885;28;20036;-77
2023/02/12 12:33:25;;;;;;;18.90;8.07;;;;;;;7.34;99.42;102046.38;10514026;28;20056;-78
2023/02/12 12:38:38;;;;;;;14.73;8.07;;;;;;;7.34;100.00;102048.13;10519077;28;20100;-78
2023/02/12 12:43:59;;;;;;;16.10;7.90;;;;;;;7.35;100.00;102044.69;10513095;28;20098;-77
2023/02/12 12:49:33;;;;;;;15.18;8.60;;;;;;;7.23;100.00;102036.66;10497367;28;20052;-77
2023/02/12 12:54:44;;;;;;;21.83;7.10;;;;;;;7.38;100.00;102028.13;10531167;22;20024;-74
2023/02/12 12:59:59;;;;;;;18.42;6.88;;;;;;;7.33;100.00;102036.78;10509535;28;20055;-75
2023/02/12 13:05:42;;;;;;;23.90;8.25;;;;;;;7.23;100.00;102034.03;10544787;28;20485;-75
2023/02/12 13:10:46;;;;;;;21.40;9.50;;;;;;;7.32;100.00;102029.81;10524070;28;20052;-75
2023/02/12 13:16:24;;;;;;;13.02;8.20;;;;;;;7.29;100.00;102036.72;10544195;28;20040;-75
2023/02/12 13:21:54;;;;;;;16.40;8.50;;;;;;;7.25;100.00;102033.19;10544123;28;20043;-76
2023/02/12 13:27:04;;;;;;;13.80;7.70;;;;;;;7.11;100.00;102036.47;10545398;28;20058;-75
2023/02/12 13:32:15;;;;;;;18.95;7.60;;;;;;;7.12;100.00;102028.66;10523821;28;20044;-75
2023/02/12 13:37:24;;;;;;;10.07;7.82;;;;;;;6.92;100.00;102024.88;10542682;28;20043;-76
2023/02/12 13:43:04;;;;;;;12.45;7.07;;;;;;;7.03;100.00;102021.53;10542344;28;20127;-75
2023/02/12 13:48:32;;;;;;;14.05;8.07;;;;;;;6.94;100.00;102031.88;10454920;28;20053;-75
2023/02/12 13:53:54;;;;;;;7.82;6.80;;;;;;;7.25;100.00;102019.22;10453542;28;20055;-75
2023/02/12 13:58:59;;;;;;;13.00;8.02;;;;;;;7.34;100.00;102027.22;10454562;28;20505;-71
2023/02/12 14:04:42;;;;;;;7.95;7.20;;;;;;;7.14;100.00;102024.34;10454926;28;20053;-71
2023/02/12 14:09:59;;;;;;;9.27;7.55;;;;;;;7.20;100.00;102029.63;10356857;28;20145;-70
2023/02/12 14:15:10;;;;;;;7.40;6.70;;;;;;;7.26;100.00;102029.75;10371700;28;20116;-71
2023/02/12 14:20:27;;;;;;;8.48;7.57;;;;;;;7.36;100.00;102035.97;10371342;28;20053;-71
2023/02/12 14:25:36;;;;;;;7.70;7.00;;;;;;;7.28;100.00;102032.38;10410171;28;20148;-71
2023/02/12 14:30:39;;;;;;;8.70;7.90;;;;;;;7.38;100.00;102031.63;10414309;28;20059;-72
2023/02/12 14:35:43;;;;;;;7.90;7.30;;;;;;;7.30;100.00;102038.47;10414304;28;20440;-71
2023/02/12 14:40:49;;;;;;;8.52;7.80;;;;;;;7.17;100.00;102033.94;10411739;28;20507;-72
2023/02/12 14:45:51;;;;;;;9.60;8.80;;;;;;;7.23;100.00;102039.28;10510699;28;20127;-71
2023/02/12 14:50:54;;;;;;;9.75;9.05;;;;;;;7.05;100.00;102040.75;10539253;28;20044;-70
2023/02/12 14:55:57;;;;;;;10.50;9.63;;;;;;;7.21;100.00;102039.22;10530187;28;20044;-71
2023/02/12 15:01:02;;;;;;;9.90;9.10;;;;;;;7.11;100.00;102053.03;10529457;28;20050;-71
2023/02/12 15:06:15;;;;;;;10.18;9.38;;;;;;;7.17;100.00;102045.31;10548500;28;20044;-71
2023/02/12 15:11:22;;;;;;;12.20;10.88;;;;;;;6.85;100.00;102050.03;10547581;28;20119;-71
2023/02/12 15:17:03;;;;;;;11.70;10.70;;;;;;;6.76;100.00;102048.16;10548993;28;20040;-71
2023/02/12 15:22:44;;;;;;;13.02;11.60;;;;;;;6.67;100.00;102052.34;10546454;28;20119;-71
2023/02/12 15:27:48;;;;;;;13.95;12.65;;;;;;;7.01;100.00;102046.81;10377066;28;20049;-71
2023/02/12 15:32:50;;;;;;;13.27;12.13;;;;;;;7.01;100.00;102046.81;10377597;28;20073;-71
2023/02/12 15:37:54;;;;;;;14.10;12.75;;;;;;;6.74;100.00;102049.00;10378739;28;20061;-71
2023/02/12 15:42:59;;;;;;;14.68;13.35;;;;;;;6.75;100.00;102050.75;10361037;28;20050;-71
2023/02/12 15:48:06;;;;;;;14.20;12.88;;;;;;;6.71;100.00;102044.59;10381874;28;20056;-71
2023/02/12 15:53:09;;;;;;;13.50;12.38;;;;;;;6.42;100.00;102051.03;10379715;28;20084;-73
2023/02/12 15:58:48;;;;;;;15.77;14.27;;;;;;;6.30;100.00;102052.59;10496126;28;20054;-71
2023/02/12 16:03:52;;;;;;;15.68;14.38;;;;;;;6.24;100.00;102046.38;10548653;28;20039;-71
2023/02/12 16:09:07;;;;;;;16.90;15.32;;;;;;;6.19;100.00;102054.13;10548610;28;20501;-71
2023/02/12 16:14:26;;;;;;;14.57;13.30;;;;;;;6.25;100.00;102048.16;10531325;28;20536;-72
2023/02/12 16:19:31;;;;;;;13.38;12.18;;;;;;;6.20;100.00;102049.81;10548839;28;20040;-72
2023/02/12 16:24:42;;;;;;;15.30;13.90;;;;;;;6.13;100.00;102058.38;10547295;28;20048;-70
2023/02/12 16:30:22;;;;;;;16.48;14.98;;;;;;;6.00;100.00;102071.19;10544169;28;20435;-70
2023/02/12 16:35:34;;;;;;;15.57;13.95;;;;;;;6.01;100.00;102072.06;10414196;28;20053;-71
2023/02/12 16:40:36;;;;;;;14.60;13.20;;;;;;;5.96;100.00;102073.69;10399490;28;20046;-73
2023/02/12 16:45:40;;;;;;;15.00;13.63;;;;;;;5.90;100.00;102084.00;10417221;28;20049;-71
2023/02/12 16:50:49;;;;;;;16.10;14.70;;;;;;;5.92;100.00;102084.94;10401522;28;20057;-71
2023/02/12 16:55:54;;;;;;;16.45;14.85;;;;;;;6.10;100.00;102079.19;10418057;28;20077;-71
2023/02/12 17:00:59;;;;;;;18.00;16.40;;;;;;;6.26;100.00;102076.03;10417811;28;20132;-71
2023/02/12 17:06:01;;;;;;;16.80;15.40;;;;;;;6.15;100.00;102082.75;10402733;28;20041;-70
2023/02/12 17:11:03;;;;;;;17.33;15.85;;;;;;;6.36;100.00;102087.53;10462469;28;20113;-71
2023/02/12 17:16:05;;;;;;;17.08;15.57;;;;;;;6.29;100.00;102084.81;10540711;28;20048;-71
2023/02/12 17:21:36;;;;;;;15.73;14.40;;;;;;;6.29;100.00;102083.94;10542163;28;20382;-71
2023/02/12 17:26:38;;;;;;;16.88;15.35;;;;;;;6.23;100.00;102102.94;10519569;28;20044;-71
2023/02/12 17:31:40;;;;;;;18.75;16.27;;;;;;;6.37;100.00;102100.59;10541569;28;20051;-71
2023/02/12 17:36:41;;;;;;;18.52;16.67;;;;;;;6.26;100.00;102103.03;10541046;28;20043;-71
2023/02/12 17:41:44;;;;;;;19.13;17.42;;;;;;;6.18;100.00;102102.00;10540723;28;20062;-71
2023/02/12 17:46:45;;;;;;;21.60;19.50;;;;;;;6.24;100.00;102104.75;10543653;28;20043;-71
2023/02/12 17:51:47;;;;;;;21.48;19.60;;;;;;;6.02;100.00;102119.09;10542255;28;20119;-72
2023/02/12 17:56:49;;;;;;;19.73;17.95;;;;;;;6.25;100.00;102118.69;10540767;28;20055;-73
2023/02/12 18:01:51;;;;;;;36.45;31.15;;;;;;;6.39;100.00;102117.19;10541982;28;20042;-72
2023/02/12 18:06:52;;;;;;;109.85;61.70;;;;;;;6.44;100.00;102130.34;10540144;28;20505;-73
2023/02/12 18:11:54;;;;;;;92.05;50.95;;;;;;;6.28;100.00;102126.53;10543639;28;20052;-73
2023/02/12 18:16:56;;;;;;;48.10;33.63;;;;;;;6.07;100.00;102127.91;10540264;28;20448;-73
2023/02/12 18:21:57;;;;;;;92.32;51.30;;;;;;;6.16;100.00;102131.56;10539788;28;20048;-72
2023/02/12 18:27:00;;;;;;;54.58;37.03;;;;;;;6.36;100.00;102130.19;10537469;28;20032;-73
2023/02/12 18:32:02;;;;;;;91.70;52.80;;;;;;;6.10;100.00;102131.41;10508760;28;20044;-73
2023/02/12 18:37:04;;;;;;;69.40;38.88;;;;;;;6.25;100.00;102129.13;10506221;28;20123;-72
2023/02/12 18:42:06;;;;;;;40.67;28.15;;;;;;;6.01;100.00;102125.16;10488239;28;20053;-73
2023/02/12 18:47:08;;;;;;;28.98;22.95;;;;;;;6.04;100.00;102121.72;10505484;28;20040;-73
2023/02/12 18:52:10;;;;;;;32.47;24.55;;;;;;;6.17;100.00;102121.13;10509720;28;20115;-73
2023/02/12 18:57:12;;;;;;;23.70;21.25;;;;;;;6.12;100.00;102109.72;10524030;22;20040;-77
2023/02/12 19:02:15;;;;;;;23.25;20.95;;;;;;;6.11;100.00;102117.50;10542396;28;20044;-77
2023/02/12 19:07:17;;;;;;;21.67;19.63;;;;;;;5.95;100.00;102106.75;10555414;28;20048;-77
2023/02/12 19:12:19;;;;;;;23.88;21.15;;;;;;;5.70;100.00;102104.44;10535672;28;20146;-76
2023/02/12 19:17:21;;;;;;;27.65;20.80;;;;;;;5.71;100.00;102112.34;10536619;28;20032;-76
2023/02/12 19:22:23;;;;;;;26.73;21.85;;;;;;;5.72;100.00;102108.00;10554488;28;20035;-77
2023/02/12 19:27:25;;;;;;;27.67;21.20;;;;;;;5.77;100.00;102104.63;10552935;28;20037;-76
2023/02/12 19:32:27;;;;;;;24.33;20.70;;;;;;;5.85;100.00;102096.97;10534077;28;20101;-76
2023/02/12 19:37:30;;;;;;;23.85;21.10;;;;;;;5.82;100.00;102097.75;10551135;28;20070;-78
2023/02/12 19:42:33;;;;;;;24.60;21.75;;;;;;;5.68;100.00;102099.22;10534573;28;20378;-77
2023/02/12 19:47:34;;;;;;;27.80;24.48;;;;;;;5.55;100.00;102094.56;10553990;28;20040;-77
2023/02/12 19:52:36;;;;;;;22.00;19.83;;;;;;;5.44;100.00;102094.31;10525939;28;20499;-76
2023/02/12 19:57:45;;;;;;;24.17;21.77;;;;;;;5.37;100.00;102091.56;10550915;28;20058;-76
2023/02/12 20:02:47;;;;;;;35.08;24.90;;;;;;;5.38;100.00;102102.03;10532621;28;20052;-77
2023/02/12 20:07:49;;;;;;;29.92;22.15;;;;;;;5.51;100.00;102098.84;10531901;28;20131;-77
2023/02/12 20:12:51;;;;;;;23.70;21.27;;;;;;;5.52;100.00;102092.78;10548986;28;20127;-75
2023/02/12 20:17:53;;;;;;;29.80;22.05;;;;;;;5.28;100.00;102084.41;10529990;28;20090;-76
2023/02/12 20:22:55;;;;;;;28.23;22.48;;;;;;;5.28;100.00;102087.91;10547267;28;20048;-77
2023/02/12 20:27:58;;;;;;;29.90;21.67;;;;;;;5.42;100.00;102092.53;10545629;28;20042;-76
2023/02/12 20:33:00;;;;;;;24.60;20.10;;;;;;;5.23;100.00;102094.75;10527485;28;20068;-76
2023/02/12 20:38:04;;;;;;;23.02;20.05;;;;;;;5.08;100.00;102102.19;10526905;28;20072;-77
2023/02/12 20:43:06;;;;;;;32.17;22.13;;;;;;;5.13;100.00;102102.31;10545222;28;20036;-76
2023/02/12 20:48:08;;;;;;;28.60;21.67;;;;;;;5.16;100.00;102099.78;10528842;28;20415;-75
2023/02/12 20:53:10;;;;;;;29.20;22.85;;;;;;;5.37;100.00;102113.31;10526147;28;20118;-77
2023/02/12 20:58:12;;;;;;;27.85;21.13;;;;;;;5.16;100.00;102103.25;10544268;28;20036;-76
2023/02/12 21:03:14;;;;;;;34.58;23.50;;;;;;;5.09;100.00;102098.75;10544695;28;20044;-77
2023/02/12 21:08:16;;;;;;;30.70;22.48;;;;;;;5.29;100.00;102094.00;10525811;28;20044;-76
2023/02/12 21:13:18;;;;;;;25.55;20.30;;;;;;;5.13;100.00;102097.09;10526482;28;20476;-76
2023/02/12 21:18:24;;;;;;;31.30;21.58;;;;;;;5.05;100.00;102103.00;10543860;28;20032;-77
2023/02/12 21:23:26;;;;;;;24.80;15.93;;;;;;;5.04;100.00;102096.03;10544070;28;20032;-75
2023/02/12 21:28:28;;;;;;;35.97;23.35;;;;;;;5.17;100.00;102102.41;10526043;28;20044;-76
2023/02/12 21:33:30;;;;;;;35.47;23.70;;;;;;;5.03;100.00;102101.22;10525206;28;20048;-76
2023/02/12 21:38:37;;;;;;;36.70;23.23;;;;;;;5.04;100.00;102102.97;10543381;28;20124;-75
2023/02/12 21:43:42;;;;;;;46.60;25.52;;;;;;;4.95;100.00;102106.22;10524797;28;20044;-75
2023/02/12 21:48:44;;;;;;;46.00;25.02;;;;;;;5.08;100.00;102107.41;10525161;28;20062;-75
2023/02/12 21:53:47;;;;;;;41.53;26.35;;;;;;;5.02;100.00;102105.53;10543680;28;20449;-76
2023/02/12 21:58:49;;;;;;;43.25;26.13;;;;;;;5.20;100.00;102097.28;10542016;28;20060;-76
2023/02/12 22:03:51;;;;;;;37.00;23.08;;;;;;;5.13;100.00;102095.34;10523904;28;20123;-76
2023/02/12 22:08:54;;;;;;;33.63;22.80;;;;;;;5.20;100.00;102093.78;10542143;28;20117;-75
2023/02/12 22:13:56;;;;;;;40.47;24.60;;;;;;;4.80;100.00;102091.09;10523925;28;20040;-75
2023/02/12 22:19:00;;;;;;;32.83;23.08;;;;;;;4.74;100.00;102097.91;10524389;28;20131;-75
2023/02/12 22:24:05;;;;;;;39.45;24.40;;;;;;;4.69;100.00;102113.41;10523612;28;20055;-76
2023/02/12 22:29:09;;;;;;;43.22;25.65;;;;;;;4.79;100.00;102107.59;10522450;28;20036;-76
2023/02/12 22:34:17;;;;;;;32.78;22.38;;;;;;;4.74;100.00;102110.94;10541998;28;20058;-76
2023/02/12 22:39:21;;;;;;;39.88;23.83;;;;;;;4.78;100.00;102113.66;10525187;28;20050;-75
2023/02/12 22:44:22;;;;;;;48.20;27.55;;;;;;;5.02;100.00;102105.53;10526299;28;20098;-75
2023/02/12 22:49:25;;;;;;;48.22;26.27;;;;;;;4.87;100.00;102117.31;10542071;28;20408;-75
2023/02/12 22:54:27;;;;;;;50.58;27.45;;;;;;;5.05;100.00;102112.56;10542792;28;20048;-75
2023/02/12 22:59:29;;;;;;;53.42;28.00;;;;;;;5.03;100.00;102109.03;10541787;28;20115;-76
2023/02/12 23:04:31;;;;;;;49.65;26.60;;;;;;;5.05;100.00;102103.00;10523481;28;20520;-75
2023/02/12 23:09:33;;;;;;;50.10;26.02;;;;;;;4.97;100.00;102111.50;10541944;28;20050;-75
2023/02/12 23:14:34;;;;;;;45.35;26.08;;;;;;;4.97;100.00;102107.16;10528353;28;20101;-74